createdAt,value
2022-11-16T00:01:37.122Z,7.14
2022-11-16T00:04:21.337Z,6.65
2022-11-16T00:07:07.599Z,6.80
2022-11-16T00:09:51.778Z,6.84
2022-11-16T00:12:36.003Z,6.88
2022-11-16T00:15:19.964Z,6.70
2022-11-16T00:18:04.065Z,6.52
2022-11-16T00:20:48.046Z,6.57
2022-11-16T00:23:34.027Z,6.86
2022-11-16T00:26:18.325Z,6.75
2022-11-16T00:29:02.405Z,6.80
2022-11-16T00:31:47.052Z,6.48
2022-11-16T00:34:30.945Z,6.04
2022-11-16T00:37:15.064Z,6.47
2022-11-16T00:40:00.574Z,6.68
2022-11-16T00:42:44.958Z,6.46
2022-11-16T00:45:29.028Z,6.70
2022-11-16T00:48:13.712Z,6.57
2022-11-16T00:50:57.828Z,6.53
2022-11-16T00:53:42.011Z,6.32
2022-11-16T00:56:27.495Z,6.20
2022-11-16T00:59:11.678Z,6.28
2022-11-16T01:01:55.736Z,6.33
2022-11-16T01:04:39.873Z,6.46
2022-11-16T01:07:23.904Z,6.44
2022-11-16T01:10:10.973Z,6.04
2022-11-16T01:12:55.958Z,6.15
2022-11-16T01:15:39.948Z,6.31
2022-11-16T01:18:23.949Z,6.33
2022-11-16T01:21:08.874Z,6.67
2022-11-16T01:23:54.268Z,6.53
2022-11-16T01:26:38.300Z,6.46
2022-11-16T01:29:24.106Z,6.64
2022-11-16T01:32:11.774Z,6.01
2022-11-16T01:34:55.691Z,6.36
2022-11-16T01:37:43.992Z,6.52
2022-11-16T01:40:29.375Z,6.11
2022-11-16T01:43:18.572Z,6.44
2022-11-16T01:46:05.222Z,6.42
2022-11-16T01:48:54.510Z,6.22
2022-11-16T01:51:41.199Z,6.48
2022-11-16T01:54:25.867Z,6.12
2022-11-16T01:57:17.666Z,6.04
2022-11-16T02:00:12.901Z,6.62
2022-11-16T02:03:01.010Z,5.81
2022-11-16T02:06:29.579Z,5.91
2022-11-16T02:09:55.859Z,6.49
2022-11-16T02:13:12.614Z,6.37
2022-11-16T02:16:13.766Z,6.09
2022-11-16T02:19:15.860Z,5.95
2022-11-16T02:22:09.282Z,6.30
2022-11-16T02:25:04.347Z,6.11
2022-11-16T02:28:21.845Z,6.02
2022-11-16T02:31:10.980Z,5.83
2022-11-16T02:33:58.451Z,6.17
2022-11-16T02:36:45.365Z,6.47
2022-11-16T02:39:32.376Z,6.54
2022-11-16T02:42:21.611Z,6.30
2022-11-16T02:45:10.142Z,5.87
2022-11-16T02:47:59.472Z,5.76
2022-11-16T02:50:44.783Z,6.00
2022-11-16T02:53:29.281Z,6.15
2022-11-16T02:56:16.837Z,5.73
2022-11-16T02:59:01.477Z,5.62
2022-11-16T03:01:53.512Z,6.12
2022-11-16T03:04:44.126Z,5.74
2022-11-16T03:07:34.521Z,5.71
2022-11-16T03:10:35.358Z,5.58
2022-11-16T03:13:23.652Z,6.12
2022-11-16T03:16:14.749Z,5.93
2022-11-16T03:19:03.784Z,6.26
2022-11-16T03:21:53.508Z,5.78
2022-11-16T03:24:37.978Z,5.82
2022-11-16T03:27:30.462Z,6.03
2022-11-16T03:30:22.325Z,6.06
2022-11-16T03:33:15.999Z,5.99
2022-11-16T03:36:12.024Z,5.86
2022-11-16T03:39:00.599Z,5.87
2022-11-16T03:41:50.086Z,6.01
2022-11-16T03:44:36.745Z,6.08
2022-11-16T03:47:22.740Z,6.08
2022-11-16T03:50:08.023Z,6.07
2022-11-16T03:52:51.988Z,6.12
2022-11-16T03:55:37.523Z,6.08
2022-11-16T03:58:21.426Z,5.83
2022-11-16T04:01:06.108Z,5.78
2022-11-16T04:03:50.436Z,5.85
2022-11-16T04:06:53.203Z,5.87
2022-11-16T04:09:54.576Z,5.93
2022-11-16T04:12:59.180Z,6.01
2022-11-16T04:16:00.597Z,5.92
2022-11-16T04:19:02.087Z,5.91
2022-11-16T04:22:08.196Z,5.55
2022-11-16T04:25:00.662Z,5.54
2022-11-16T04:28:03.149Z,5.62
2022-11-16T04:31:09.568Z,5.36
2022-11-16T04:34:13.585Z,5.58
2022-11-16T04:37:20.303Z,5.23
2022-11-16T04:40:05.978Z,5.02
2022-11-16T04:42:54.763Z,5.15
2022-11-16T04:45:56.798Z,4.81
2022-11-16T04:48:46.049Z,4.57
2022-11-16T04:51:29.926Z,4.89
2022-11-16T04:54:15.062Z,4.99
2022-11-16T04:56:59.255Z,4.90
2022-11-16T04:59:44.433Z,4.91
2022-11-16T05:02:29.022Z,4.97
2022-11-16T05:05:15.655Z,5.01
2022-11-16T05:08:01.109Z,5.15
2022-11-16T05:10:52.105Z,5.11
2022-11-16T05:13:36.648Z,4.78
2022-11-16T05:16:22.437Z,4.96
2022-11-16T05:19:24.468Z,5.04
2022-11-16T05:22:08.375Z,5.04
2022-11-16T05:24:52.319Z,5.26
2022-11-16T05:27:36.432Z,5.43
2022-11-16T05:30:20.522Z,5.49
2022-11-16T05:33:05.905Z,5.53
2022-11-16T05:35:54.569Z,5.79
2022-11-16T05:38:38.955Z,5.87
2022-11-16T05:41:22.853Z,6.18
2022-11-16T05:44:07.591Z,6.23
2022-11-16T05:46:51.817Z,6.38
2022-11-16T05:49:37.525Z,5.94
2022-11-16T05:52:21.663Z,6.01
2022-11-16T05:55:06.263Z,5.80
2022-11-16T05:57:56.236Z,6.17
2022-11-16T06:00:40.098Z,6.06
2022-11-16T06:03:29.020Z,6.31
2022-11-16T06:06:17.666Z,6.61
2022-11-16T06:09:01.853Z,6.77
2022-11-16T06:11:47.746Z,6.77
2022-11-16T06:14:31.872Z,6.74
2022-11-16T06:17:16.633Z,6.90
2022-11-16T06:20:02.140Z,6.95
2022-11-16T06:22:48.579Z,7.07
2022-11-16T06:25:33.083Z,7.24
2022-11-16T06:28:17.096Z,6.93
2022-11-16T06:31:01.315Z,6.75
2022-11-16T06:33:48.718Z,7.25
2022-11-16T06:36:37.766Z,7.25
2022-11-16T06:39:23.161Z,7.48
2022-11-16T06:42:07.818Z,7.95
2022-11-16T06:44:52.053Z,8.01
2022-11-16T06:47:41.050Z,7.89
2022-11-16T06:50:25.332Z,7.52
2022-11-16T06:53:10.007Z,7.52
2022-11-16T06:55:55.734Z,8.18
2022-11-16T06:58:42.586Z,7.68
2022-11-16T07:01:27.847Z,7.95
2022-11-16T07:04:18.621Z,8.06
2022-11-16T07:07:08.626Z,8.60
2022-11-16T07:09:54.469Z,8.47
2022-11-16T07:12:40.074Z,9.32
2022-11-16T07:15:24.692Z,9.49
2022-11-16T07:18:09.078Z,9.86
2022-11-16T07:20:55.497Z,10.12
2022-11-16T07:23:39.518Z,10.34
2022-11-16T07:26:25.989Z,10.32
2022-11-16T07:29:16.430Z,10.15
2022-11-16T07:32:19.278Z,9.87
2022-11-16T07:35:23.148Z,9.95
2022-11-16T07:38:07.670Z,9.99
2022-11-16T07:40:51.587Z,10.06
2022-11-16T07:43:38.186Z,10.27
2022-11-16T07:46:50.009Z,10.46
2022-11-16T07:49:34.253Z,10.43
2022-11-16T07:52:26.075Z,10.29
2022-11-16T07:55:14.036Z,10.24
2022-11-16T07:57:59.208Z,10.64
2022-11-16T08:00:43.468Z,10.71
2022-11-16T08:03:33.421Z,10.44
2022-11-16T08:06:19.443Z,10.54
2022-11-16T08:09:04.085Z,10.19
2022-11-16T08:11:51.499Z,10.31
2022-11-16T08:14:35.794Z,10.09
2022-11-16T08:17:20.078Z,9.18
2022-11-16T08:20:06.658Z,9.64
2022-11-16T08:22:51.744Z,10.09
2022-11-16T08:25:36.068Z,10.24
2022-11-16T08:28:20.427Z,9.58
2022-11-16T08:31:09.237Z,10.07
2022-11-16T08:33:54.603Z,10.38
2022-11-16T08:36:40.190Z,10.20
2022-11-16T08:39:25.295Z,10.50
2022-11-16T08:42:09.410Z,10.32
2022-11-16T08:44:54.522Z,10.43
2022-11-16T08:47:38.646Z,10.69
2022-11-16T08:50:24.678Z,10.64
2022-11-16T08:53:10.827Z,10.70
2022-11-16T08:55:54.920Z,10.64
2022-11-16T08:58:40.201Z,10.33
2022-11-16T09:01:27.579Z,10.11
2022-11-16T09:04:12.038Z,10.17
2022-11-16T09:06:56.288Z,10.66
2022-11-16T09:09:41.778Z,10.77
2022-11-16T09:15:28.123Z,11.04
2022-11-16T09:18:11.845Z,11.55
2022-11-16T09:20:55.801Z,11.80
2022-11-16T09:23:39.577Z,12.03
2022-11-16T09:26:25.510Z,12.26
2022-11-16T09:29:13.973Z,12.53
2022-11-16T09:31:58.453Z,12.57
2022-11-16T09:34:42.166Z,12.73
2022-11-16T09:37:26.028Z,12.76
2022-11-16T09:40:12.565Z,12.99
2022-11-16T09:43:05.765Z,13.04
2022-11-16T09:45:57.462Z,13.05
2022-11-16T09:48:42.692Z,13.13
2022-11-16T09:51:29.349Z,13.23
2022-11-16T09:54:19.353Z,13.15
2022-11-16T09:57:12.185Z,13.44
2022-11-16T10:00:02.251Z,13.54
2022-11-16T10:03:03.763Z,13.33
2022-11-16T10:05:54.589Z,13.51
2022-11-16T10:08:44.520Z,13.44
2022-11-16T10:11:45.520Z,13.69
2022-11-16T10:15:01.526Z,13.83
2022-11-16T10:18:03.356Z,13.87
2022-11-16T10:21:13.898Z,14.06
2022-11-16T10:24:33.610Z,14.09
2022-11-16T10:27:47.587Z,14.42
2022-11-16T10:30:37.031Z,14.45
2022-11-16T10:33:26.748Z,13.82
2022-11-16T10:36:14.765Z,14.23
2022-11-16T10:39:00.856Z,14.37
2022-11-16T10:41:47.772Z,14.76
2022-11-16T10:44:37.753Z,14.73
2022-11-16T10:47:33.429Z,15.05
2022-11-16T10:50:32.718Z,14.85
2022-11-16T10:53:26.750Z,14.59
2022-11-16T10:56:22.136Z,15.05
2022-11-16T10:59:07.381Z,14.95
2022-11-16T11:01:53.299Z,14.40
2022-11-16T11:04:39.172Z,14.58
2022-11-16T11:07:31.047Z,14.17
2022-11-16T11:10:29.715Z,14.63
2022-11-16T11:13:26.398Z,14.83
2022-11-16T11:16:18.866Z,15.02
2022-11-16T11:19:21.094Z,15.17
2022-11-16T11:22:05.141Z,14.91
2022-11-16T11:24:50.354Z,15.06
2022-11-16T11:27:36.085Z,15.29
2022-11-16T11:30:21.382Z,15.49
2022-11-16T11:33:12.556Z,15.50
2022-11-16T11:36:03.941Z,15.38
2022-11-16T11:38:58.798Z,15.57
2022-11-16T11:41:46.430Z,15.76
2022-11-16T11:44:37.156Z,15.76
2022-11-16T11:47:56.675Z,15.38
2022-11-16T11:50:44.459Z,14.95
2022-11-16T11:53:42.831Z,15.39
2022-11-16T11:56:28.882Z,15.64
2022-11-16T11:59:20.194Z,15.75
2022-11-16T12:02:21.062Z,15.95
2022-11-16T12:05:29.539Z,15.89
2022-11-16T12:08:26.497Z,15.84
2022-11-16T12:11:21.477Z,16.13
2022-11-16T12:14:18.091Z,15.73
2022-11-16T12:17:10.890Z,15.89
2022-11-16T12:20:23.101Z,16.29
2022-11-16T12:23:36.940Z,16.22
2022-11-16T12:26:29.515Z,16.32
2022-11-16T12:29:25.078Z,16.34
2022-11-16T12:32:31.965Z,16.52
2022-11-16T12:35:37.759Z,16.61
2022-11-16T12:38:51.055Z,16.64
2022-11-16T12:41:59.334Z,16.66
2022-11-16T12:45:03.315Z,16.71
2022-11-16T12:48:09.933Z,16.66
2022-11-16T12:51:00.919Z,16.66
2022-11-16T12:54:00.907Z,16.78
2022-11-16T12:56:50.737Z,16.73
2022-11-16T12:59:51.181Z,16.81
2022-11-16T13:02:56.719Z,16.73
2022-11-16T13:05:53.737Z,16.87
2022-11-16T13:08:48.880Z,16.58
2022-11-16T13:11:37.717Z,16.72
2022-11-16T13:14:26.353Z,16.68
2022-11-16T13:17:18.615Z,16.73
2022-11-16T13:20:27.563Z,16.59
2022-11-16T13:23:19.938Z,16.27
2022-11-16T13:26:10.435Z,16.55
2022-11-16T13:29:01.311Z,16.57
2022-11-16T13:31:54.037Z,16.64
2022-11-16T13:34:40.528Z,16.52
2022-11-16T13:37:46.515Z,16.55
2022-11-16T13:40:33.124Z,16.57
2022-11-16T13:43:20.799Z,16.42
2022-11-16T13:46:04.597Z,16.52
2022-11-16T13:48:48.887Z,16.48
2022-11-16T13:51:33.342Z,16.16
2022-11-16T13:54:44.404Z,16.31
2022-11-16T13:57:26.312Z,16.17
2022-11-16T14:00:12.704Z,16.13
2022-11-16T14:03:27.824Z,16.17
2022-11-16T14:06:50.918Z,16.20
2022-11-16T14:09:46.443Z,16.15
2022-11-16T14:12:55.520Z,16.03
2022-11-16T14:15:39.856Z,15.85
2022-11-16T14:18:38.168Z,15.73
2022-11-16T14:21:39.117Z,15.50
2022-11-16T14:24:33.695Z,15.40
2022-11-16T14:27:30.445Z,15.48
2022-11-16T14:30:21.925Z,15.22
2022-11-16T14:33:06.217Z,15.17
2022-11-16T14:35:53.864Z,15.14
2022-11-16T14:38:40.027Z,14.13
2022-11-16T14:41:25.814Z,13.36
2022-11-16T14:44:11.357Z,14.04
2022-11-16T14:46:57.626Z,14.05
2022-11-16T14:49:43.376Z,14.17
2022-11-16T14:52:35.461Z,13.90
2022-11-16T14:55:21.610Z,13.86
2022-11-16T14:58:10.013Z,13.84
2022-11-16T15:00:55.039Z,13.75
2022-11-16T15:03:46.859Z,13.55
2022-11-16T15:06:36.673Z,13.43
2022-11-16T15:09:23.830Z,13.61
2022-11-16T15:12:32.665Z,13.60
2022-11-16T15:15:19.903Z,13.64
2022-11-16T15:18:09.466Z,13.27
2022-11-16T15:20:54.801Z,13.32
2022-11-16T15:24:02.011Z,13.18
2022-11-16T15:26:52.738Z,12.70
2022-11-16T15:29:36.877Z,12.82
2022-11-16T15:32:20.624Z,12.72
2022-11-16T15:35:05.625Z,12.40
2022-11-16T15:38:01.772Z,12.51
2022-11-16T15:40:50.439Z,12.46
2022-11-16T15:43:45.199Z,12.30
2022-11-16T15:46:39.236Z,12.30
2022-11-16T15:49:29.994Z,12.23
2022-11-16T15:52:13.797Z,12.30
2022-11-16T15:55:05.919Z,12.06
2022-11-16T15:57:59.917Z,12.39
2022-11-16T16:00:48.393Z,12.11
2022-11-16T16:03:34.872Z,12.31
2022-11-16T16:06:46.440Z,12.27
2022-11-16T16:09:32.990Z,11.90
2022-11-16T16:12:20.085Z,11.61
2022-11-16T16:15:22.878Z,11.63
2022-11-16T16:18:35.232Z,11.25
2022-11-16T16:21:19.322Z,11.66
2022-11-16T16:24:03.885Z,11.66
2022-11-16T16:26:47.718Z,11.65
2022-11-16T16:29:32.944Z,11.76
2022-11-16T16:32:25.411Z,11.57
2022-11-16T16:35:17.564Z,11.47
2022-11-16T16:38:02.297Z,11.73
2022-11-16T16:40:46.375Z,11.10
2022-11-16T16:43:30.511Z,11.40
2022-11-16T16:46:16.040Z,11.29
2022-11-16T16:49:00.117Z,11.13
2022-11-16T16:51:44.179Z,11.34
2022-11-16T16:54:28.668Z,11.20
2022-11-16T16:57:17.698Z,10.67
2022-11-16T17:00:01.943Z,10.98
2022-11-16T17:02:49.191Z,11.18
2022-11-16T17:05:34.100Z,11.14
2022-11-16T17:08:18.303Z,11.20
2022-11-16T17:11:02.489Z,10.64
2022-11-16T17:13:46.343Z,11.36
2022-11-16T17:16:30.631Z,11.22
2022-11-16T17:19:16.316Z,10.90
2022-11-16T17:22:02.453Z,10.93
2022-11-16T17:24:47.323Z,10.93
2022-11-16T17:27:32.436Z,10.56
2022-11-16T17:30:17.179Z,11.11
2022-11-16T17:33:01.320Z,10.80
2022-11-16T17:35:56.514Z,10.92
2022-11-16T17:38:41.872Z,10.42
2022-11-16T17:41:26.147Z,10.76
2022-11-16T17:44:10.774Z,10.64
2022-11-16T17:46:56.033Z,10.76
2022-11-16T17:49:40.255Z,10.80
2022-11-16T17:52:25.718Z,10.87
2022-11-16T17:55:12.159Z,10.96
2022-11-16T17:57:56.730Z,10.83
2022-11-16T18:00:41.202Z,10.91
2022-11-16T18:03:25.704Z,10.93
2022-11-16T18:06:13.368Z,10.34
2022-11-16T18:08:58.705Z,10.42
2022-11-16T18:11:42.529Z,10.29
2022-11-16T18:14:27.795Z,10.31
2022-11-16T18:17:11.730Z,10.57
2022-11-16T18:19:55.771Z,10.54
2022-11-16T18:22:39.761Z,10.57
2022-11-16T18:25:25.385Z,10.34
2022-11-16T18:28:09.601Z,10.36
2022-11-16T18:30:53.581Z,10.23
2022-11-16T18:33:38.635Z,10.42
2022-11-16T18:36:23.815Z,10.55
2022-11-16T18:39:08.423Z,10.44
2022-11-16T18:41:55.339Z,10.42
2022-11-16T18:44:39.290Z,10.36
2022-11-16T18:47:23.168Z,10.21
2022-11-16T18:50:18.045Z,10.42
2022-11-16T18:53:02.887Z,10.42
2022-11-16T18:55:57.420Z,9.62
2022-11-16T18:58:52.296Z,10.46
2022-11-16T19:01:37.040Z,10.32
2022-11-16T19:04:21.034Z,10.03
2022-11-16T19:07:05.052Z,9.84
2022-11-16T19:09:49.239Z,9.77
2022-11-16T19:12:33.572Z,9.98
2022-11-16T19:15:19.272Z,9.94
2022-11-16T19:18:21.219Z,10.11
2022-11-16T19:21:07.117Z,9.80
2022-11-16T19:23:53.123Z,10.08
2022-11-16T19:26:37.018Z,9.59
2022-11-16T19:29:20.933Z,9.80
2022-11-16T19:32:06.721Z,9.89
2022-11-16T19:34:50.476Z,9.87
2022-11-16T19:37:34.351Z,9.99
2022-11-16T19:40:23.709Z,9.76
2022-11-16T19:43:08.898Z,10.13
2022-11-16T19:45:52.843Z,9.90
2022-11-16T19:48:38.905Z,9.77
2022-11-16T19:51:24.895Z,9.92
2022-11-16T19:54:09.404Z,9.88
2022-11-16T19:56:55.264Z,9.93
2022-11-16T19:59:39.321Z,9.80
2022-11-16T20:02:23.107Z,9.83
2022-11-16T20:05:09.511Z,9.67
2022-11-16T20:07:53.280Z,9.68
2022-11-16T20:10:36.980Z,9.91
2022-11-16T20:13:21.865Z,9.96
2022-11-16T20:16:06.095Z,9.90
2022-11-16T20:18:51.024Z,9.94
2022-11-16T20:21:37.821Z,9.78
2022-11-16T20:24:21.859Z,9.89
2022-11-16T20:27:05.832Z,10.10
2022-11-16T20:29:49.571Z,10.16
2022-11-16T20:32:33.252Z,10.26
2022-11-16T20:35:19.232Z,10.12
2022-11-16T20:38:04.480Z,10.14
2022-11-16T20:40:48.199Z,10.03
2022-11-16T20:43:32.265Z,10.05
2022-11-16T20:46:17.635Z,9.97
2022-11-16T20:49:01.962Z,10.05
2022-11-16T20:51:47.651Z,10.14
2022-11-16T20:54:33.586Z,9.98
2022-11-16T20:57:17.354Z,9.84
2022-11-16T21:00:01.132Z,10.06
2022-11-16T21:02:44.941Z,10.22
2022-11-16T21:05:28.680Z,10.14
2022-11-16T21:08:13.503Z,9.96
2022-11-16T21:10:58.695Z,10.06
2022-11-16T21:13:59.886Z,9.84
2022-11-16T21:16:46.530Z,9.58
2022-11-16T21:19:30.484Z,9.83
2022-11-16T21:22:14.474Z,9.82
2022-11-16T21:25:01.820Z,10.03
2022-11-16T21:27:48.449Z,10.24
2022-11-16T21:30:32.186Z,10.39
2022-11-16T21:33:15.888Z,10.57
2022-11-16T21:36:05.133Z,10.65
2022-11-16T21:38:48.969Z,10.35
2022-11-16T21:41:32.940Z,10.24
2022-11-16T21:44:18.073Z,10.33
2022-11-16T21:47:01.814Z,10.39
2022-11-16T21:50:08.667Z,10.50
2022-11-16T21:52:49.320Z,10.14
2022-11-16T21:55:33.177Z,10.07
2022-11-16T21:58:16.956Z,10.60
2022-11-16T22:01:03.289Z,10.62
2022-11-16T22:03:47.001Z,10.65
2022-11-16T22:06:47.981Z,10.60
2022-11-16T22:09:31.759Z,10.37
2022-11-16T22:12:15.594Z,10.32
2022-11-16T22:14:59.602Z,10.54
2022-11-16T22:17:45.430Z,10.49
2022-11-16T22:20:29.191Z,10.87
2022-11-16T22:23:12.862Z,10.71
2022-11-16T22:26:01.375Z,10.75
2022-11-16T22:28:45.228Z,10.98
2022-11-16T22:31:28.991Z,11.14
2022-11-16T22:34:14.125Z,11.00
2022-11-16T22:36:57.891Z,11.09
2022-11-16T22:39:41.872Z,10.39
2022-11-16T22:42:25.839Z,10.95
2022-11-16T22:45:10.548Z,10.86
2022-11-16T22:47:55.107Z,10.86
2022-11-16T22:50:40.516Z,10.73
2022-11-16T22:53:24.422Z,10.46
2022-11-16T22:56:10.182Z,10.70
2022-11-16T22:58:54.815Z,10.59
2022-11-16T23:01:39.448Z,10.69
2022-11-16T23:04:23.381Z,10.60
2022-11-16T23:07:09.167Z,10.31
2022-11-16T23:09:53.262Z,10.64
2022-11-16T23:12:54.519Z,10.31
2022-11-16T23:15:50.801Z,10.07
2022-11-16T23:18:34.770Z,10.50
2022-11-16T23:21:35.769Z,10.44
2022-11-16T23:24:38.305Z,10.52
2022-11-16T23:27:31.509Z,10.36
2022-11-16T23:30:15.659Z,10.23
2022-11-16T23:33:00.144Z,10.21
2022-11-16T23:35:44.150Z,10.06
2022-11-16T23:38:28.070Z,10.30
2022-11-16T23:41:30.684Z,10.39
2022-11-16T23:44:14.693Z,10.28
2022-11-16T23:46:58.697Z,10.31
2022-11-16T23:49:42.612Z,10.27
2022-11-16T23:52:26.560Z,10.15
2022-11-16T23:55:10.931Z,10.37
2022-11-16T23:57:57.579Z,10.01
